createdAt,value
2022-10-17T00:01:12.164Z,9.43
2022-10-17T00:03:41.130Z,10.73
2022-10-17T00:06:10.690Z,9.77
2022-10-17T00:08:41.370Z,8.53
2022-10-17T00:11:13.920Z,9.13
2022-10-17T00:13:42.160Z,8.67
2022-10-17T00:16:11.513Z,9.20
2022-10-17T00:18:39.816Z,8.07
2022-10-17T00:21:08.058Z,8.07
2022-10-17T00:23:36.144Z,8.07
2022-10-17T00:26:07.310Z,9.20
2022-10-17T00:28:35.599Z,9.33
2022-10-17T00:31:05.803Z,8.80
2022-10-17T00:33:34.784Z,9.00
2022-10-17T00:36:07.559Z,9.30
2022-10-17T00:38:37.185Z,9.80
2022-10-17T00:41:07.383Z,8.90
2022-10-17T00:43:51.733Z,9.00
2022-10-17T00:46:20.302Z,8.30
2022-10-17T00:48:50.822Z,8.63
2022-10-17T00:51:22.152Z,9.07
2022-10-17T00:53:51.800Z,8.50
2022-10-17T00:56:22.541Z,9.10
2022-10-17T00:58:50.691Z,8.40
2022-10-17T01:01:19.015Z,8.30
2022-10-17T01:03:47.417Z,8.40
2022-10-17T01:06:15.592Z,9.90
2022-10-17T01:08:44.123Z,12.30
2022-10-17T01:11:30.131Z,8.90
2022-10-17T01:14:03.527Z,8.00
2022-10-17T01:16:40.563Z,7.77
2022-10-17T01:19:32.794Z,8.60
2022-10-17T01:22:03.870Z,8.33
2022-10-17T01:24:49.214Z,7.70
2022-10-17T01:27:43.366Z,9.00
2022-10-17T01:30:43.515Z,8.47
2022-10-17T01:33:18.830Z,11.20
2022-10-17T01:35:53.554Z,8.27
2022-10-17T01:38:26.112Z,9.30
2022-10-17T01:41:01.749Z,9.23
2022-10-17T01:43:38.861Z,9.40
2022-10-17T01:46:14.189Z,9.10
2022-10-17T01:48:46.357Z,8.23
2022-10-17T01:51:19.017Z,9.07
2022-10-17T01:53:54.098Z,9.37
2022-10-17T01:56:26.028Z,8.93
2022-10-17T01:58:58.526Z,9.23
2022-10-17T02:01:30.796Z,8.60
2022-10-17T02:04:02.995Z,9.13
2022-10-17T02:06:35.089Z,8.73
2022-10-17T02:09:16.843Z,9.23
2022-10-17T02:11:51.605Z,9.30
2022-10-17T02:14:29.401Z,9.00
2022-10-17T02:17:09.063Z,8.83
2022-10-17T02:19:47.949Z,9.17
2022-10-17T02:22:26.230Z,9.13
2022-10-17T02:25:01.418Z,9.73
2022-10-17T02:27:37.916Z,8.60
2022-10-17T02:30:13.700Z,8.90
2022-10-17T02:32:49.475Z,8.67
2022-10-17T02:35:23.485Z,8.73
2022-10-17T02:37:53.363Z,8.43
2022-10-17T02:40:25.642Z,8.83
2022-10-17T02:42:56.112Z,8.40
2022-10-17T02:45:27.555Z,8.87
2022-10-17T02:48:01.571Z,9.17
2022-10-17T02:50:39.901Z,9.67
2022-10-17T02:53:14.004Z,11.83
2022-10-17T02:55:46.537Z,9.53
2022-10-17T02:58:20.982Z,9.80
2022-10-17T03:00:49.984Z,9.60
2022-10-17T03:03:26.052Z,8.70
2022-10-17T03:05:55.089Z,8.90
2022-10-17T03:08:26.026Z,9.23
2022-10-17T03:10:54.245Z,8.50
2022-10-17T03:13:23.850Z,10.37
2022-10-17T03:15:52.126Z,11.40
2022-10-17T03:18:20.785Z,11.70
2022-10-17T03:20:52.253Z,14.27
2022-10-17T03:23:21.376Z,12.30
2022-10-17T03:25:49.576Z,10.70
2022-10-17T03:28:18.026Z,10.30
2022-10-17T03:30:46.501Z,12.67
2022-10-17T03:33:15.286Z,10.37
2022-10-17T03:35:43.665Z,10.57
2022-10-17T03:38:13.438Z,10.30
2022-10-17T03:40:41.814Z,10.80
2022-10-17T03:43:11.943Z,9.77
2022-10-17T03:45:41.886Z,10.07
2022-10-17T03:48:10.180Z,9.80
2022-10-17T03:50:38.340Z,10.27
2022-10-17T03:53:06.662Z,10.40
2022-10-17T03:55:36.980Z,10.30
2022-10-17T03:58:05.360Z,10.40
2022-10-17T04:00:33.778Z,10.20
2022-10-17T04:03:02.404Z,10.10
2022-10-17T04:05:30.656Z,9.97
2022-10-17T04:08:01.069Z,9.87
2022-10-17T04:10:53.857Z,10.93
2022-10-17T04:13:22.118Z,10.77
2022-10-17T04:15:56.481Z,10.00
2022-10-17T04:18:25.151Z,10.73
2022-10-17T04:20:53.792Z,10.30
2022-10-17T04:23:23.224Z,9.30
2022-10-17T04:25:58.910Z,10.57
2022-10-17T04:28:28.484Z,10.33
2022-10-17T04:31:01.035Z,11.07
2022-10-17T04:33:36.034Z,10.30
2022-10-17T04:36:06.606Z,10.13
2022-10-17T04:38:38.566Z,10.13
2022-10-17T04:41:09.851Z,10.70
2022-10-17T04:43:39.751Z,9.70
2022-10-17T04:46:10.167Z,9.87
2022-10-17T04:48:39.653Z,10.20
2022-10-17T04:51:11.744Z,10.03
2022-10-17T04:53:48.664Z,15.27
2022-10-17T04:56:20.921Z,12.30
2022-10-17T04:58:51.576Z,11.23
2022-10-17T05:01:21.825Z,11.87
2022-10-17T05:03:53.992Z,12.37
2022-10-17T05:06:25.145Z,11.97
2022-10-17T05:09:12.118Z,10.80
2022-10-17T05:11:43.414Z,10.50
2022-10-17T05:14:12.529Z,10.80
2022-10-17T05:16:40.713Z,10.27
2022-10-17T05:19:09.378Z,11.40
2022-10-17T05:21:43.928Z,11.00
2022-10-17T05:24:14.629Z,10.87
2022-10-17T05:26:44.246Z,10.67
2022-10-17T05:29:13.803Z,10.40
2022-10-17T05:31:47.154Z,10.70
2022-10-17T05:34:15.402Z,11.00
2022-10-17T05:36:44.009Z,13.50
2022-10-17T05:39:14.869Z,12.07
2022-10-17T05:41:45.009Z,11.60
2022-10-17T05:44:13.863Z,10.70
2022-10-17T05:46:46.435Z,10.70
2022-10-17T05:49:25.200Z,11.27
2022-10-17T05:52:00.916Z,11.27
2022-10-17T05:54:32.430Z,10.60
2022-10-17T05:57:02.266Z,10.73
2022-10-17T05:59:33.438Z,10.40
2022-10-17T06:02:08.066Z,11.10
2022-10-17T06:04:36.435Z,10.90
2022-10-17T06:07:04.756Z,11.07
2022-10-17T06:09:34.657Z,11.07
2022-10-17T06:12:05.522Z,12.80
2022-10-17T06:14:33.862Z,12.23
2022-10-17T06:17:04.186Z,11.17
2022-10-17T06:19:32.603Z,11.90
2022-10-17T06:22:00.948Z,12.00
2022-10-17T06:24:30.306Z,11.57
2022-10-17T06:27:09.352Z,12.10
2022-10-17T06:29:41.127Z,13.47
2022-10-17T06:32:14.902Z,12.80
2022-10-17T06:34:47.394Z,14.00
2022-10-17T06:37:16.894Z,12.20
2022-10-17T06:39:46.987Z,13.77
2022-10-17T06:42:21.819Z,17.80
2022-10-17T06:45:11.397Z,14.60
2022-10-17T06:47:46.282Z,13.70
2022-10-17T06:50:42.301Z,16.53
2022-10-17T06:53:18.019Z,20.23
2022-10-17T06:56:14.053Z,14.50
2022-10-17T06:58:51.298Z,17.53
2022-10-17T07:01:31.962Z,12.47
2022-10-17T07:04:02.425Z,12.50
2022-10-17T07:06:32.968Z,12.77
2022-10-17T07:09:07.761Z,11.90
2022-10-17T07:11:38.312Z,11.30
2022-10-17T07:14:07.814Z,11.83
2022-10-17T07:16:36.302Z,16.93
2022-10-17T07:19:20.433Z,11.60
2022-10-17T07:21:49.137Z,12.30
2022-10-17T07:24:17.699Z,11.60
2022-10-17T07:26:54.264Z,15.90
2022-10-17T07:29:24.185Z,14.13
2022-10-17T07:32:06.504Z,12.47
2022-10-17T07:34:35.268Z,13.43
2022-10-17T07:37:03.981Z,23.90
2022-10-17T07:39:32.277Z,12.90
2022-10-17T07:42:00.459Z,12.77
2022-10-17T07:44:30.147Z,16.13
2022-10-17T07:46:58.349Z,10.73
2022-10-17T07:49:26.712Z,16.67
2022-10-17T07:51:54.971Z,23.10
2022-10-17T07:54:23.251Z,10.80
2022-10-17T07:56:51.449Z,18.40
2022-10-17T07:59:20.104Z,12.67
2022-10-17T08:01:50.254Z,10.67
2022-10-17T08:04:18.396Z,12.47
2022-10-17T08:06:46.545Z,11.77
2022-10-17T08:09:14.812Z,16.07
2022-10-17T08:11:43.916Z,10.57
2022-10-17T08:14:13.591Z,11.13
2022-10-17T08:16:42.105Z,11.50
2022-10-17T08:19:13.094Z,11.33
2022-10-17T08:21:41.417Z,10.23
2022-10-17T08:24:10.374Z,9.80
2022-10-17T08:26:42.371Z,8.73
2022-10-17T08:29:16.652Z,8.07
2022-10-17T08:31:48.396Z,8.53
2022-10-17T08:34:27.253Z,9.43
2022-10-17T08:36:55.726Z,8.57
2022-10-17T08:39:24.384Z,8.90
2022-10-17T08:42:05.794Z,8.30
2022-10-17T08:44:44.709Z,11.47
2022-10-17T08:47:17.717Z,9.17
2022-10-17T08:49:52.471Z,9.07
2022-10-17T08:52:29.483Z,13.73
2022-10-17T08:55:00.388Z,9.23
2022-10-17T08:57:29.713Z,8.03
2022-10-17T08:59:58.669Z,7.93
2022-10-17T09:02:44.290Z,7.80
2022-10-17T09:05:36.222Z,7.67
2022-10-17T09:08:14.747Z,7.33
2022-10-17T09:10:53.807Z,6.40
2022-10-17T09:13:43.256Z,7.60
2022-10-17T09:16:37.468Z,8.10
2022-10-17T09:19:12.919Z,7.03
2022-10-17T09:21:53.430Z,7.57
2022-10-17T09:24:26.613Z,7.67
2022-10-17T09:26:57.083Z,7.43
2022-10-17T09:29:32.385Z,8.63
2022-10-17T09:32:05.685Z,6.87
2022-10-17T09:34:34.365Z,7.50
2022-10-17T09:37:04.505Z,7.20
2022-10-17T09:39:33.195Z,9.70
2022-10-17T09:42:02.801Z,10.03
2022-10-17T09:44:33.607Z,10.00
2022-10-17T09:47:17.726Z,7.60
2022-10-17T09:49:47.169Z,7.10
2022-10-17T09:52:19.938Z,9.83
2022-10-17T09:54:50.889Z,7.77
2022-10-17T09:57:20.873Z,6.77
2022-10-17T09:59:56.955Z,8.03
2022-10-17T10:02:26.955Z,6.93
2022-10-17T10:05:05.955Z,7.00
2022-10-17T10:07:38.344Z,7.90
2022-10-17T10:10:09.350Z,9.03
2022-10-17T10:12:40.366Z,7.23
2022-10-17T10:15:34.636Z,7.13
2022-10-17T10:18:06.952Z,7.23
2022-10-17T10:20:37.335Z,7.40
2022-10-17T10:23:15.976Z,7.20
2022-10-17T10:25:58.048Z,6.60
2022-10-17T10:28:29.522Z,9.70
2022-10-17T10:31:02.916Z,6.60
2022-10-17T10:33:33.122Z,6.97
2022-10-17T10:36:03.489Z,8.10
2022-10-17T10:38:35.369Z,7.10
2022-10-17T10:41:05.933Z,9.20
2022-10-17T10:43:37.896Z,8.70
2022-10-17T10:46:17.358Z,6.90
2022-10-17T10:48:52.865Z,7.90
2022-10-17T10:51:35.276Z,8.93
2022-10-17T10:54:11.343Z,7.60
2022-10-17T10:56:43.805Z,7.13
2022-10-17T10:59:19.007Z,8.70
2022-10-17T11:01:55.620Z,7.30
2022-10-17T11:04:35.425Z,7.00
2022-10-17T11:07:10.383Z,10.47
2022-10-17T11:09:54.315Z,7.37
2022-10-17T11:12:30.565Z,7.30
2022-10-17T11:15:04.876Z,9.37
2022-10-17T11:17:40.409Z,9.80
2022-10-17T11:20:16.295Z,7.40
2022-10-17T11:22:47.988Z,8.27
2022-10-17T11:25:29.810Z,11.47
2022-10-17T11:28:02.271Z,8.67
2022-10-17T11:30:48.469Z,12.17
2022-10-17T11:33:26.739Z,9.07
2022-10-17T11:36:01.061Z,11.90
2022-10-17T11:38:39.526Z,15.53
2022-10-17T11:41:12.365Z,11.27
2022-10-17T11:43:47.162Z,10.03
2022-10-17T11:46:23.022Z,13.23
2022-10-17T11:49:08.985Z,10.90
2022-10-17T11:52:01.498Z,11.27
2022-10-17T11:54:36.172Z,10.37
2022-10-17T11:57:20.076Z,10.90
2022-10-17T12:00:03.206Z,13.43
2022-10-17T12:02:37.848Z,14.00
2022-10-17T12:05:17.547Z,12.93
2022-10-17T12:07:53.720Z,14.03
2022-10-17T12:10:35.194Z,13.37
2022-10-17T12:13:36.687Z,13.67
2022-10-17T12:16:40.282Z,14.97
2022-10-17T12:19:30.770Z,16.83
2022-10-17T12:22:20.748Z,12.73
2022-10-17T12:25:02.683Z,12.60
2022-10-17T12:27:42.270Z,12.67
2022-10-17T12:30:22.932Z,12.50
2022-10-17T12:33:07.039Z,14.40
2022-10-17T12:35:37.825Z,15.73
2022-10-17T12:38:29.750Z,15.33
2022-10-17T12:41:06.953Z,13.30
2022-10-17T12:43:53.971Z,15.63
2022-10-17T12:46:58.705Z,15.43
2022-10-17T12:49:45.530Z,14.90
2022-10-17T12:52:23.430Z,14.07
2022-10-17T12:55:14.089Z,14.33
2022-10-17T12:57:49.672Z,15.40
2022-10-17T13:00:22.540Z,19.73
2022-10-17T13:02:55.306Z,14.97
2022-10-17T13:05:29.722Z,15.30
2022-10-17T13:08:00.355Z,14.30
2022-10-17T13:10:30.943Z,18.23
2022-10-17T13:13:10.099Z,27.47
2022-10-17T13:15:38.745Z,16.10
2022-10-17T13:18:07.131Z,16.73
2022-10-17T13:20:36.774Z,16.50
2022-10-17T13:23:05.071Z,17.13
2022-10-17T13:25:35.517Z,15.87
2022-10-17T13:28:13.247Z,17.87
2022-10-17T13:30:48.570Z,17.97
2022-10-17T13:33:36.096Z,15.87
2022-10-17T13:36:08.564Z,17.53
2022-10-17T13:38:40.376Z,17.17
2022-10-17T13:41:34.931Z,17.63
2022-10-17T13:44:08.219Z,17.97
2022-10-17T13:46:39.315Z,42.63
2022-10-17T13:49:17.878Z,18.67
2022-10-17T13:51:49.728Z,17.27
2022-10-17T13:54:37.773Z,18.23
2022-10-17T13:57:07.425Z,18.00
2022-10-17T13:59:40.300Z,18.30
2022-10-17T14:02:15.564Z,17.80
2022-10-17T14:05:15.743Z,19.50
2022-10-17T14:08:05.461Z,19.97
2022-10-17T14:10:28.725Z,18.60
2022-10-17T14:12:57.877Z,17.60
2022-10-17T14:15:30.436Z,16.60
2022-10-17T14:18:05.474Z,17.03
2022-10-17T14:23:37.311Z,17.30
2022-10-17T14:26:14.255Z,15.37
2022-10-17T14:28:45.083Z,15.03
2022-10-17T14:31:25.052Z,14.10
2022-10-17T14:33:54.718Z,13.63
2022-10-17T14:36:32.956Z,14.50
2022-10-17T14:39:03.575Z,14.00
2022-10-17T14:41:42.938Z,14.10
2022-10-17T14:44:21.661Z,14.67
2022-10-17T14:46:53.957Z,14.23
2022-10-17T14:49:38.889Z,13.77
2022-10-17T14:52:27.965Z,13.00
2022-10-17T14:54:59.241Z,14.33
2022-10-17T14:57:40.634Z,15.57
2022-10-17T15:00:11.747Z,16.00
2022-10-17T15:02:39.974Z,16.30
2022-10-17T15:05:12.968Z,15.77
2022-10-17T15:07:41.779Z,16.80
2022-10-17T15:10:31.921Z,17.00
2022-10-17T15:13:27.718Z,17.50
2022-10-17T15:15:51.942Z,17.00
2022-10-17T15:18:20.677Z,15.87
2022-10-17T15:20:55.291Z,14.43
2022-10-17T15:23:33.082Z,15.57
2022-10-17T15:26:02.884Z,14.07
2022-10-17T15:28:31.182Z,12.90
2022-10-17T15:30:59.551Z,13.80
2022-10-17T15:33:27.904Z,13.30
2022-10-17T15:38:24.432Z,13.30
2022-10-17T15:40:52.786Z,13.40
2022-10-17T15:43:22.464Z,12.93
2022-10-17T15:45:50.705Z,13.47
2022-10-17T15:48:30.990Z,13.40
2022-10-17T15:50:59.665Z,12.93
2022-10-17T15:53:28.297Z,14.47
2022-10-17T15:55:56.739Z,15.17
2022-10-17T15:58:28.298Z,12.50
2022-10-17T16:00:56.513Z,13.80
2022-10-17T16:03:24.723Z,15.73
2022-10-17T16:05:53.009Z,14.03
2022-10-17T16:08:21.164Z,15.10
2022-10-17T16:10:49.577Z,15.70
2022-10-17T16:13:20.112Z,16.93
2022-10-17T16:15:49.778Z,15.80
2022-10-17T16:18:18.085Z,17.23
2022-10-17T16:20:46.391Z,17.60
2022-10-17T16:23:15.447Z,16.80
2022-10-17T16:25:43.609Z,16.43
2022-10-17T16:28:12.165Z,15.40
2022-10-17T16:30:46.204Z,16.57
2022-10-17T16:33:15.900Z,16.70
2022-10-17T16:35:45.665Z,17.60
2022-10-17T16:38:13.877Z,16.47
2022-10-17T16:40:42.560Z,17.57
2022-10-17T16:43:13.227Z,19.87
2022-10-17T16:45:41.981Z,16.83
2022-10-17T16:48:10.845Z,18.67
2022-10-17T16:50:41.778Z,18.83
2022-10-17T16:53:10.097Z,16.90
2022-10-17T16:55:38.366Z,18.60
2022-10-17T16:58:06.676Z,18.30
2022-10-17T17:00:34.934Z,19.53
2022-10-17T17:03:03.107Z,19.53
2022-10-17T17:05:31.378Z,20.37
2022-10-17T17:08:03.446Z,21.10
2022-10-17T17:10:31.539Z,20.03
2022-10-17T17:13:01.204Z,19.63
2022-10-17T17:15:29.471Z,15.53
2022-10-17T17:18:00.325Z,14.27
2022-10-17T17:20:30.983Z,13.37
2022-10-17T17:23:00.744Z,10.83
2022-10-17T17:25:29.172Z,8.00
2022-10-17T17:27:57.327Z,8.33
2022-10-17T17:30:25.623Z,5.70
2022-10-17T17:32:53.826Z,7.30
2022-10-17T17:35:22.014Z,7.30
2022-10-17T17:37:50.102Z,4.47
2022-10-17T17:40:19.591Z,4.80
2022-10-17T17:42:47.772Z,5.63
2022-10-17T17:45:16.090Z,5.13
2022-10-17T17:47:44.189Z,5.27
2022-10-17T17:50:12.379Z,5.00
2022-10-17T17:52:42.214Z,4.83
2022-10-17T17:55:11.044Z,8.60
2022-10-17T17:57:40.665Z,7.93
2022-10-17T18:00:09.954Z,5.97
2022-10-17T18:02:42.144Z,7.17
2022-10-17T18:05:12.514Z,4.40
2022-10-17T18:07:40.938Z,6.53
2022-10-17T18:12:45.301Z,7.17
2022-10-17T18:15:14.117Z,6.87
2022-10-17T18:17:42.647Z,5.87
2022-10-17T18:20:11.732Z,5.80
2022-10-17T18:22:40.000Z,6.80
2022-10-17T18:25:08.781Z,6.60
2022-10-17T18:27:37.033Z,6.57
2022-10-17T18:30:08.512Z,7.77
2022-10-17T18:32:36.660Z,6.80
2022-10-17T18:35:04.947Z,7.37
2022-10-17T18:37:38.798Z,7.83
2022-10-17T18:40:08.447Z,11.17
2022-10-17T18:42:36.631Z,21.70
2022-10-17T18:45:07.029Z,18.73
2022-10-17T18:47:35.174Z,12.93
2022-10-17T18:50:03.258Z,10.97
2022-10-17T18:52:31.555Z,10.00
2022-10-17T18:54:59.866Z,7.10
2022-10-17T18:57:28.426Z,7.60
2022-10-17T18:59:56.673Z,7.47
2022-10-17T19:02:26.295Z,8.30
2022-10-17T19:04:54.517Z,6.87
2022-10-17T19:07:22.714Z,9.13
2022-10-17T19:09:50.919Z,7.60
2022-10-17T19:12:19.062Z,8.40
2022-10-17T19:14:47.168Z,8.57
2022-10-17T19:17:15.177Z,7.50
2022-10-17T19:19:44.747Z,8.27
2022-10-17T19:22:12.930Z,7.27
2022-10-17T19:24:41.243Z,6.93
2022-10-17T19:27:09.357Z,9.17
2022-10-17T19:29:37.421Z,7.27
2022-10-17T19:32:12.093Z,6.73
2022-10-17T19:34:45.419Z,6.33
2022-10-17T19:37:14.290Z,6.47
2022-10-17T19:39:42.427Z,7.77
2022-10-17T19:42:10.546Z,6.37
2022-10-17T19:44:38.579Z,8.40
2022-10-17T19:47:06.687Z,7.03
2022-10-17T19:49:34.875Z,8.63
2022-10-17T19:52:04.414Z,6.77
2022-10-17T19:54:32.729Z,8.57
2022-10-17T19:57:00.859Z,7.00
2022-10-17T19:59:28.973Z,9.07
2022-10-17T20:01:57.132Z,11.83
2022-10-17T20:04:25.265Z,10.03
2022-10-17T20:06:54.036Z,7.70
2022-10-17T20:09:25.054Z,8.33
2022-10-17T20:11:53.368Z,7.70
2022-10-17T20:14:21.530Z,8.63
2022-10-17T20:16:53.459Z,8.70
2022-10-17T20:19:21.602Z,8.60
2022-10-17T20:21:49.712Z,8.50
2022-10-17T20:24:18.338Z,10.03
2022-10-17T20:26:47.763Z,9.73
2022-10-17T20:29:17.700Z,10.83
2022-10-17T20:31:47.098Z,10.87
2022-10-17T20:34:17.508Z,9.90
2022-10-17T20:36:46.256Z,9.17
2022-10-17T20:39:16.416Z,10.10
2022-10-17T20:41:48.152Z,9.70
2022-10-17T20:44:17.786Z,9.77
2022-10-17T20:47:00.766Z,9.90
2022-10-17T20:49:30.063Z,9.83
2022-10-17T20:51:58.592Z,9.23
2022-10-17T20:54:27.779Z,9.13
2022-10-17T20:56:58.630Z,10.50
2022-10-17T20:59:30.904Z,10.10
2022-10-17T21:01:59.032Z,11.70
2022-10-17T21:04:45.392Z,11.67
2022-10-17T21:07:14.347Z,12.73
2022-10-17T21:09:42.476Z,12.30
2022-10-17T21:12:10.628Z,14.97
2022-10-17T21:14:39.993Z,14.80
2022-10-17T21:17:08.199Z,15.17
2022-10-17T21:19:36.261Z,15.80
2022-10-17T21:22:04.343Z,15.27
2022-10-17T21:24:32.833Z,18.50
2022-10-17T21:27:01.083Z,16.90
2022-10-17T21:29:29.211Z,17.87
2022-10-17T21:32:01.780Z,19.83
2022-10-17T21:34:29.926Z,20.77
2022-10-17T21:36:58.090Z,19.40
2022-10-17T21:39:26.463Z,19.90
2022-10-17T21:41:54.717Z,20.17
2022-10-17T21:44:24.548Z,20.93
2022-10-17T21:46:53.606Z,20.33
2022-10-17T21:49:25.018Z,20.20
2022-10-17T21:51:53.889Z,21.37
2022-10-17T21:54:23.927Z,21.33
2022-10-17T21:56:52.413Z,22.90
2022-10-17T21:59:20.455Z,21.33
2022-10-17T22:01:48.570Z,20.70
2022-10-17T22:04:18.629Z,23.40
2022-10-17T22:06:51.442Z,22.57
2022-10-17T22:09:21.405Z,23.30
2022-10-17T22:11:52.122Z,24.27
2022-10-17T22:14:22.073Z,22.60
2022-10-17T22:16:50.849Z,24.63
2022-10-17T22:19:22.634Z,24.30
2022-10-17T22:21:52.472Z,24.33
2022-10-17T22:24:22.288Z,24.90
2022-10-17T22:26:50.424Z,24.90
2022-10-17T22:29:18.865Z,28.47
2022-10-17T22:31:47.001Z,28.77
2022-10-17T22:34:17.053Z,28.60
2022-10-17T22:36:45.334Z,28.83
2022-10-17T22:39:14.847Z,27.93
2022-10-17T22:41:43.062Z,28.57
2022-10-17T22:44:11.134Z,29.30
2022-10-17T22:46:39.244Z,30.90
2022-10-17T22:49:07.295Z,31.10
2022-10-17T22:51:35.279Z,31.07
2022-10-17T22:54:03.379Z,31.47
2022-10-17T22:56:32.830Z,31.30
2022-10-17T22:59:00.988Z,30.10
2022-10-17T23:01:29.148Z,31.17
2022-10-17T23:03:57.299Z,30.93
2022-10-17T23:06:25.509Z,31.40
2022-10-17T23:08:53.629Z,31.20
2022-10-17T23:11:21.861Z,29.77
2022-10-17T23:13:51.440Z,32.50
2022-10-17T23:16:19.543Z,33.20
2022-10-17T23:18:47.640Z,34.33
2022-10-17T23:21:15.719Z,35.30
2022-10-17T23:23:43.790Z,34.10
2022-10-17T23:26:13.639Z,33.13
2022-10-17T23:28:42.661Z,34.47
2022-10-17T23:31:17.160Z,33.70
2022-10-17T23:33:46.839Z,32.50
2022-10-17T23:36:18.414Z,33.80
2022-10-17T23:38:47.323Z,31.67
2022-10-17T23:41:16.341Z,37.70
2022-10-17T23:43:44.905Z,35.03
2022-10-17T23:46:13.531Z,30.77
2022-10-17T23:48:43.008Z,32.90
2022-10-17T23:51:11.776Z,36.27
2022-10-17T23:53:40.749Z,36.30
2022-10-17T23:56:10.398Z,33.30
2022-10-17T23:58:38.615Z,32.90
